sensor_id;sensor_type;location;lat;lon;timestamp;P1;durP1;ratioP1;P2;durP2;ratioP2
9447;SDS011;4762;48.128;11.376;2022-12-11T00:00:52;11.93;;;5.47;;
9447;SDS011;4762;48.128;11.376;2022-12-11T00:02:55;10.03;;;6.83;;
9447;SDS011;4762;48.128;11.376;2022-12-11T00:04:57;8.83;;;5.33;;
9447;SDS011;4762;48.128;11.376;2022-12-11T00:07:00;6.23;;;4.27;;
9447;SDS011;4762;48.128;11.376;2022-12-11T00:09:02;10.40;;;5.60;;
9447;SDS011;4762;48.128;11.376;2022-12-11T00:11:06;9.87;;;6.03;;
9447;SDS011;4762;48.128;11.376;2022-12-11T00:13:10;7.90;;;4.37;;
9447;SDS011;4762;48.128;11.376;2022-12-11T00:15:12;14.00;;;6.90;;
9447;SDS011;4762;48.128;11.376;2022-12-11T00:17:14;9.07;;;5.37;;
9447;SDS011;4762;48.128;11.376;2022-12-11T00:19:16;9.23;;;6.07;;
9447;SDS011;4762;48.128;11.376;2022-12-11T00:21:19;10.20;;;6.50;;
9447;SDS011;4762;48.128;11.376;2022-12-11T00:23:21;11.83;;;6.50;;
9447;SDS011;4762;48.128;11.376;2022-12-11T00:25:23;7.50;;;5.27;;
9447;SDS011;4762;48.128;11.376;2022-12-11T00:27:26;12.80;;;6.60;;
9447;SDS011;4762;48.128;11.376;2022-12-11T00:29:28;10.70;;;5.40;;
9447;SDS011;4762;48.128;11.376;2022-12-11T00:31:31;13.30;;;6.10;;
9447;SDS011;4762;48.128;11.376;2022-12-11T00:33:34;11.70;;;5.43;;
9447;SDS011;4762;48.128;11.376;2022-12-11T00:35:38;6.53;;;5.23;;
9447;SDS011;4762;48.128;11.376;2022-12-11T00:37:41;12.83;;;5.20;;
9447;SDS011;4762;48.128;11.376;2022-12-11T00:39:43;7.63;;;4.47;;
9447;SDS011;4762;48.128;11.376;2022-12-11T00:41:45;10.77;;;6.27;;
9447;SDS011;4762;48.128;11.376;2022-12-11T00:43:48;5.33;;;4.73;;
9447;SDS011;4762;48.128;11.376;2022-12-11T00:45:50;11.83;;;6.00;;
9447;SDS011;4762;48.128;11.376;2022-12-11T00:47:53;9.80;;;5.70;;
9447;SDS011;4762;48.128;11.376;2022-12-11T00:49:56;9.80;;;6.40;;
9447;SDS011;4762;48.128;11.376;2022-12-11T00:51:58;9.20;;;6.30;;
9447;SDS011;4762;48.128;11.376;2022-12-11T00:59:07;10.93;;;6.43;;
9447;SDS011;4762;48.128;11.376;2022-12-11T01:01:11;11.17;;;4.87;;
9447;SDS011;4762;48.128;11.376;2022-12-11T01:03:13;9.13;;;5.43;;
9447;SDS011;4762;48.128;11.376;2022-12-11T01:05:15;13.80;;;6.40;;
9447;SDS011;4762;48.128;11.376;2022-12-11T01:07:17;7.63;;;4.47;;
9447;SDS011;4762;48.128;11.376;2022-12-11T01:09:20;8.07;;;6.37;;
9447;SDS011;4762;48.128;11.376;2022-12-11T01:11:28;9.90;;;4.70;;
9447;SDS011;4762;48.128;11.376;2022-12-11T01:13:30;10.43;;;4.90;;
9447;SDS011;4762;48.128;11.376;2022-12-11T01:15:34;9.10;;;5.13;;
9447;SDS011;4762;48.128;11.376;2022-12-11T01:17:35;5.70;;;4.00;;
9447;SDS011;4762;48.128;11.376;2022-12-11T01:19:37;5.70;;;4.27;;
9447;SDS011;4762;48.128;11.376;2022-12-11T01:21:40;8.80;;;4.40;;
9447;SDS011;4762;48.128;11.376;2022-12-11T01:23:42;10.30;;;4.13;;
9447;SDS011;4762;48.128;11.376;2022-12-11T01:25:44;5.40;;;3.87;;
9447;SDS011;4762;48.128;11.376;2022-12-11T01:27:48;7.83;;;4.73;;
9447;SDS011;4762;48.128;11.376;2022-12-11T01:29:49;20.33;;;5.40;;
9447;SDS011;4762;48.128;11.376;2022-12-11T01:31:51;10.13;;;5.00;;
9447;SDS011;4762;48.128;11.376;2022-12-11T01:33:54;8.53;;;4.43;;
9447;SDS011;4762;48.128;11.376;2022-12-11T01:35:57;7.90;;;5.17;;
9447;SDS011;4762;48.128;11.376;2022-12-11T01:37:59;8.13;;;4.90;;
9447;SDS011;4762;48.128;11.376;2022-12-11T01:40:02;8.50;;;4.50;;
9447;SDS011;4762;48.128;11.376;2022-12-11T01:42:04;5.73;;;3.80;;
9447;SDS011;4762;48.128;11.376;2022-12-11T01:44:07;8.47;;;4.97;;
9447;SDS011;4762;48.128;11.376;2022-12-11T01:46:08;6.57;;;4.73;;
9447;SDS011;4762;48.128;11.376;2022-12-11T01:48:12;4.43;;;3.53;;
9447;SDS011;4762;48.128;11.376;2022-12-11T01:50:13;7.50;;;4.00;;
9447;SDS011;4762;48.128;11.376;2022-12-11T01:52:18;5.93;;;4.03;;
9447;SDS011;4762;48.128;11.376;2022-12-11T01:54:18;4.93;;;4.00;;
9447;SDS011;4762;48.128;11.376;2022-12-11T01:56:21;7.93;;;4.97;;
9447;SDS011;4762;48.128;11.376;2022-12-11T02:00:28;11.70;;;5.40;;
9447;SDS011;4762;48.128;11.376;2022-12-11T02:02:30;5.27;;;3.57;;
9447;SDS011;4762;48.128;11.376;2022-12-11T02:04:33;11.40;;;5.73;;
9447;SDS011;4762;48.128;11.376;2022-12-11T02:06:37;4.10;;;3.30;;
9447;SDS011;4762;48.128;11.376;2022-12-11T02:08:38;8.53;;;3.97;;
9447;SDS011;4762;48.128;11.376;2022-12-11T02:10:48;4.47;;;3.83;;
9447;SDS011;4762;48.128;11.376;2022-12-11T02:12:57;8.00;;;4.50;;
9447;SDS011;4762;48.128;11.376;2022-12-11T02:17:23;5.70;;;4.20;;
9447;SDS011;4762;48.128;11.376;2022-12-11T02:19:32;5.67;;;4.37;;
9447;SDS011;4762;48.128;11.376;2022-12-11T02:21:33;23.77;;;3.47;;
9447;SDS011;4762;48.128;11.376;2022-12-11T02:26:20;4.33;;;2.97;;
9447;SDS011;4762;48.128;11.376;2022-12-11T02:30:30;6.60;;;4.30;;
9447;SDS011;4762;48.128;11.376;2022-12-11T02:32:34;5.97;;;3.30;;
9447;SDS011;4762;48.128;11.376;2022-12-11T02:34:39;4.03;;;2.93;;
9447;SDS011;4762;48.128;11.376;2022-12-11T02:36:42;5.63;;;4.23;;
9447;SDS011;4762;48.128;11.376;2022-12-11T02:38:44;4.10;;;3.13;;
9447;SDS011;4762;48.128;11.376;2022-12-11T02:40:46;7.80;;;3.93;;
9447;SDS011;4762;48.128;11.376;2022-12-11T02:42:48;8.40;;;4.70;;
9447;SDS011;4762;48.128;11.376;2022-12-11T02:44:51;5.67;;;4.43;;
9447;SDS011;4762;48.128;11.376;2022-12-11T02:46:53;5.77;;;3.57;;
9447;SDS011;4762;48.128;11.376;2022-12-11T02:48:55;3.60;;;3.27;;
9447;SDS011;4762;48.128;11.376;2022-12-11T02:50:58;6.17;;;3.97;;
9447;SDS011;4762;48.128;11.376;2022-12-11T02:53:00;5.73;;;3.67;;
9447;SDS011;4762;48.128;11.376;2022-12-11T02:55:02;7.03;;;4.73;;
9447;SDS011;4762;48.128;11.376;2022-12-11T02:57:07;7.80;;;4.60;;
9447;SDS011;4762;48.128;11.376;2022-12-11T02:59:13;11.10;;;4.80;;
9447;SDS011;4762;48.128;11.376;2022-12-11T03:01:13;18.13;;;4.30;;
9447;SDS011;4762;48.128;11.376;2022-12-11T03:03:16;8.40;;;4.00;;
9447;SDS011;4762;48.128;11.376;2022-12-11T03:14:50;5.30;;;3.00;;
9447;SDS011;4762;48.128;11.376;2022-12-11T03:19:27;6.03;;;3.77;;
9447;SDS011;4762;48.128;11.376;2022-12-11T03:21:33;3.90;;;3.07;;
9447;SDS011;4762;48.128;11.376;2022-12-11T03:23:38;6.83;;;4.80;;
9447;SDS011;4762;48.128;11.376;2022-12-11T03:26:00;6.57;;;4.53;;
9447;SDS011;4762;48.128;11.376;2022-12-11T03:28:12;4.57;;;3.33;;
9447;SDS011;4762;48.128;11.376;2022-12-11T03:30:16;5.97;;;4.13;;
9447;SDS011;4762;48.128;11.376;2022-12-11T03:44:32;5.97;;;3.23;;
9447;SDS011;4762;48.128;11.376;2022-12-11T03:46:35;6.27;;;4.50;;
9447;SDS011;4762;48.128;11.376;2022-12-11T03:48:37;7.03;;;3.63;;
9447;SDS011;4762;48.128;11.376;2022-12-11T03:50:39;5.80;;;4.20;;
9447;SDS011;4762;48.128;11.376;2022-12-11T03:52:43;8.33;;;5.10;;
9447;SDS011;4762;48.128;11.376;2022-12-11T03:54:45;9.00;;;4.30;;
9447;SDS011;4762;48.128;11.376;2022-12-11T03:56:47;7.87;;;3.90;;
9447;SDS011;4762;48.128;11.376;2022-12-11T03:58:49;4.63;;;3.33;;
9447;SDS011;4762;48.128;11.376;2022-12-11T04:00:51;3.50;;;2.80;;
9447;SDS011;4762;48.128;11.376;2022-12-11T04:02:55;3.37;;;2.90;;
9447;SDS011;4762;48.128;11.376;2022-12-11T04:05:03;2.93;;;2.20;;
9447;SDS011;4762;48.128;11.376;2022-12-11T04:07:07;5.07;;;3.57;;
9447;SDS011;4762;48.128;11.376;2022-12-11T04:09:10;4.47;;;3.43;;
9447;SDS011;4762;48.128;11.376;2022-12-11T04:11:14;6.03;;;3.10;;
9447;SDS011;4762;48.128;11.376;2022-12-11T04:13:22;6.53;;;3.13;;
9447;SDS011;4762;48.128;11.376;2022-12-11T04:15:25;6.30;;;4.07;;
9447;SDS011;4762;48.128;11.376;2022-12-11T04:17:28;7.10;;;2.67;;
9447;SDS011;4762;48.128;11.376;2022-12-11T04:19:36;4.53;;;2.80;;
9447;SDS011;4762;48.128;11.376;2022-12-11T04:21:45;6.80;;;4.17;;
9447;SDS011;4762;48.128;11.376;2022-12-11T04:23:53;9.13;;;4.80;;
9447;SDS011;4762;48.128;11.376;2022-12-11T04:26:05;4.40;;;3.17;;
9447;SDS011;4762;48.128;11.376;2022-12-11T04:28:07;5.23;;;3.97;;
9447;SDS011;4762;48.128;11.376;2022-12-11T04:30:12;5.97;;;3.40;;
9447;SDS011;4762;48.128;11.376;2022-12-11T04:32:14;5.73;;;4.50;;
9447;SDS011;4762;48.128;11.376;2022-12-11T04:34:17;6.57;;;4.00;;
9447;SDS011;4762;48.128;11.376;2022-12-11T04:36:20;13.57;;;3.70;;
9447;SDS011;4762;48.128;11.376;2022-12-11T04:38:23;4.90;;;2.93;;
9447;SDS011;4762;48.128;11.376;2022-12-11T04:40:26;8.10;;;4.60;;
9447;SDS011;4762;48.128;11.376;2022-12-11T04:47:09;4.03;;;2.97;;
9447;SDS011;4762;48.128;11.376;2022-12-11T04:51:40;8.40;;;4.70;;
9447;SDS011;4762;48.128;11.376;2022-12-11T04:56:03;7.07;;;3.90;;
9447;SDS011;4762;48.128;11.376;2022-12-11T05:00:19;4.93;;;3.57;;
9447;SDS011;4762;48.128;11.376;2022-12-11T05:14:23;10.37;;;5.47;;
9447;SDS011;4762;48.128;11.376;2022-12-11T05:30:31;5.67;;;4.10;;
9447;SDS011;4762;48.128;11.376;2022-12-11T05:32:32;6.47;;;4.37;;
9447;SDS011;4762;48.128;11.376;2022-12-11T05:34:35;4.70;;;3.40;;
9447;SDS011;4762;48.128;11.376;2022-12-11T05:36:37;9.33;;;5.63;;
9447;SDS011;4762;48.128;11.376;2022-12-11T05:38:39;5.90;;;4.67;;
9447;SDS011;4762;48.128;11.376;2022-12-11T05:40:42;6.60;;;4.00;;
9447;SDS011;4762;48.128;11.376;2022-12-11T05:42:44;7.67;;;4.63;;
9447;SDS011;4762;48.128;11.376;2022-12-11T05:44:48;4.17;;;3.27;;
9447;SDS011;4762;48.128;11.376;2022-12-11T05:46:50;6.00;;;4.53;;
9447;SDS011;4762;48.128;11.376;2022-12-11T05:48:53;10.93;;;5.47;;
9447;SDS011;4762;48.128;11.376;2022-12-11T05:50:58;11.40;;;4.60;;
9447;SDS011;4762;48.128;11.376;2022-12-11T05:53:00;12.17;;;5.00;;
9447;SDS011;4762;48.128;11.376;2022-12-11T05:55:03;6.00;;;4.47;;
9447;SDS011;4762;48.128;11.376;2022-12-11T05:57:05;8.03;;;4.20;;
9447;SDS011;4762;48.128;11.376;2022-12-11T05:59:08;7.97;;;5.50;;
9447;SDS011;4762;48.128;11.376;2022-12-11T06:01:11;7.67;;;5.17;;
9447;SDS011;4762;48.128;11.376;2022-12-11T06:03:13;9.87;;;5.43;;
9447;SDS011;4762;48.128;11.376;2022-12-11T06:05:16;6.70;;;4.40;;
9447;SDS011;4762;48.128;11.376;2022-12-11T06:07:18;14.87;;;4.00;;
9447;SDS011;4762;48.128;11.376;2022-12-11T06:09:21;7.07;;;4.60;;
9447;SDS011;4762;48.128;11.376;2022-12-11T06:11:24;5.67;;;3.90;;
9447;SDS011;4762;48.128;11.376;2022-12-11T06:13:26;9.10;;;4.57;;
9447;SDS011;4762;48.128;11.376;2022-12-11T06:15:28;5.97;;;3.93;;
9447;SDS011;4762;48.128;11.376;2022-12-11T06:17:30;3.90;;;3.50;;
9447;SDS011;4762;48.128;11.376;2022-12-11T06:19:33;9.33;;;4.70;;
9447;SDS011;4762;48.128;11.376;2022-12-11T06:21:37;8.70;;;4.17;;
9447;SDS011;4762;48.128;11.376;2022-12-11T06:23:39;17.83;;;7.03;;
9447;SDS011;4762;48.128;11.376;2022-12-11T06:25:41;4.90;;;3.60;;
9447;SDS011;4762;48.128;11.376;2022-12-11T06:27:44;6.33;;;4.30;;
9447;SDS011;4762;48.128;11.376;2022-12-11T06:29:46;6.30;;;4.30;;
9447;SDS011;4762;48.128;11.376;2022-12-11T06:31:48;5.00;;;3.67;;
9447;SDS011;4762;48.128;11.376;2022-12-11T06:33:51;6.77;;;4.30;;
9447;SDS011;4762;48.128;11.376;2022-12-11T06:35:54;7.90;;;4.37;;
9447;SDS011;4762;48.128;11.376;2022-12-11T06:37:57;7.60;;;4.57;;
9447;SDS011;4762;48.128;11.376;2022-12-11T06:40:00;7.63;;;5.17;;
9447;SDS011;4762;48.128;11.376;2022-12-11T06:42:02;12.27;;;4.53;;
9447;SDS011;4762;48.128;11.376;2022-12-11T06:44:05;6.10;;;4.00;;
9447;SDS011;4762;48.128;11.376;2022-12-11T06:46:09;5.20;;;3.73;;
9447;SDS011;4762;48.128;11.376;2022-12-11T06:48:14;7.93;;;4.20;;
9447;SDS011;4762;48.128;11.376;2022-12-11T06:50:17;9.87;;;5.70;;
9447;SDS011;4762;48.128;11.376;2022-12-11T06:52:20;10.33;;;4.50;;
9447;SDS011;4762;48.128;11.376;2022-12-11T06:54:24;5.37;;;4.63;;
9447;SDS011;4762;48.128;11.376;2022-12-11T06:56:26;11.57;;;5.50;;
9447;SDS011;4762;48.128;11.376;2022-12-11T06:58:29;13.10;;;6.10;;
9447;SDS011;4762;48.128;11.376;2022-12-11T07:00:33;9.23;;;4.50;;
9447;SDS011;4762;48.128;11.376;2022-12-11T07:02:34;8.57;;;4.97;;
9447;SDS011;4762;48.128;11.376;2022-12-11T07:04:38;7.57;;;3.90;;
9447;SDS011;4762;48.128;11.376;2022-12-11T07:06:41;6.60;;;4.43;;
9447;SDS011;4762;48.128;11.376;2022-12-11T07:08:43;12.33;;;5.47;;
9447;SDS011;4762;48.128;11.376;2022-12-11T07:10:45;3.97;;;3.50;;
9447;SDS011;4762;48.128;11.376;2022-12-11T07:12:48;5.90;;;4.33;;
9447;SDS011;4762;48.128;11.376;2022-12-11T07:14:50;8.20;;;4.70;;
9447;SDS011;4762;48.128;11.376;2022-12-11T07:16:53;5.13;;;3.87;;
9447;SDS011;4762;48.128;11.376;2022-12-11T07:18:56;8.80;;;5.30;;
9447;SDS011;4762;48.128;11.376;2022-12-11T07:20:58;9.20;;;5.83;;
9447;SDS011;4762;48.128;11.376;2022-12-11T07:23:00;15.53;;;5.23;;
9447;SDS011;4762;48.128;11.376;2022-12-11T07:25:03;12.20;;;5.43;;
9447;SDS011;4762;48.128;11.376;2022-12-11T07:27:06;7.10;;;5.27;;
9447;SDS011;4762;48.128;11.376;2022-12-11T07:29:09;16.27;;;5.43;;
9447;SDS011;4762;48.128;11.376;2022-12-11T07:31:12;6.47;;;4.57;;
9447;SDS011;4762;48.128;11.376;2022-12-11T07:33:13;6.47;;;5.50;;
9447;SDS011;4762;48.128;11.376;2022-12-11T07:35:16;9.57;;;5.30;;
9447;SDS011;4762;48.128;11.376;2022-12-11T07:37:19;12.83;;;7.00;;
9447;SDS011;4762;48.128;11.376;2022-12-11T07:39:21;10.07;;;6.43;;
9447;SDS011;4762;48.128;11.376;2022-12-11T07:41:23;7.40;;;4.87;;
9447;SDS011;4762;48.128;11.376;2022-12-11T07:43:26;9.30;;;5.30;;
9447;SDS011;4762;48.128;11.376;2022-12-11T07:45:28;11.20;;;6.60;;
9447;SDS011;4762;48.128;11.376;2022-12-11T07:47:30;6.30;;;4.77;;
9447;SDS011;4762;48.128;11.376;2022-12-11T07:49:33;7.23;;;4.97;;
9447;SDS011;4762;48.128;11.376;2022-12-11T07:51:35;7.13;;;4.83;;
9447;SDS011;4762;48.128;11.376;2022-12-11T07:53:37;9.07;;;5.47;;
9447;SDS011;4762;48.128;11.376;2022-12-11T07:55:40;12.13;;;5.53;;
9447;SDS011;4762;48.128;11.376;2022-12-11T07:57:43;9.67;;;6.27;;
9447;SDS011;4762;48.128;11.376;2022-12-11T07:59:45;9.77;;;5.17;;
9447;SDS011;4762;48.128;11.376;2022-12-11T08:01:47;10.20;;;5.03;;
9447;SDS011;4762;48.128;11.376;2022-12-11T08:03:50;9.30;;;6.00;;
9447;SDS011;4762;48.128;11.376;2022-12-11T08:05:54;9.27;;;5.47;;
9447;SDS011;4762;48.128;11.376;2022-12-11T08:07:56;6.53;;;5.43;;
9447;SDS011;4762;48.128;11.376;2022-12-11T08:09:58;10.13;;;5.13;;
9447;SDS011;4762;48.128;11.376;2022-12-11T08:12:01;6.87;;;4.40;;
9447;SDS011;4762;48.128;11.376;2022-12-11T08:14:04;11.10;;;4.40;;
9447;SDS011;4762;48.128;11.376;2022-12-11T08:16:09;10.60;;;6.03;;
9447;SDS011;4762;48.128;11.376;2022-12-11T08:18:11;9.07;;;5.53;;
9447;SDS011;4762;48.128;11.376;2022-12-11T08:20:14;5.37;;;3.67;;
9447;SDS011;4762;48.128;11.376;2022-12-11T08:22:16;8.63;;;5.60;;
9447;SDS011;4762;48.128;11.376;2022-12-11T08:24:19;6.80;;;4.83;;
9447;SDS011;4762;48.128;11.376;2022-12-11T08:26:23;4.53;;;4.00;;
9447;SDS011;4762;48.128;11.376;2022-12-11T08:28:24;8.00;;;4.83;;
9447;SDS011;4762;48.128;11.376;2022-12-11T08:30:28;11.23;;;5.03;;
9447;SDS011;4762;48.128;11.376;2022-12-11T08:32:30;6.43;;;4.30;;
9447;SDS011;4762;48.128;11.376;2022-12-11T08:34:33;16.67;;;6.80;;
9447;SDS011;4762;48.128;11.376;2022-12-11T08:36:35;11.20;;;5.80;;
9447;SDS011;4762;48.128;11.376;2022-12-11T08:38:38;6.43;;;5.00;;
9447;SDS011;4762;48.128;11.376;2022-12-11T08:40:40;4.33;;;3.77;;
9447;SDS011;4762;48.128;11.376;2022-12-11T08:42:43;11.50;;;6.20;;
9447;SDS011;4762;48.128;11.376;2022-12-11T08:44:45;6.33;;;4.70;;
9447;SDS011;4762;48.128;11.376;2022-12-11T08:46:48;6.20;;;4.90;;
9447;SDS011;4762;48.128;11.376;2022-12-11T08:48:50;8.30;;;4.03;;
9447;SDS011;4762;48.128;11.376;2022-12-11T08:50:53;16.57;;;5.50;;
9447;SDS011;4762;48.128;11.376;2022-12-11T08:52:56;11.33;;;5.87;;
9447;SDS011;4762;48.128;11.376;2022-12-11T08:54:58;13.33;;;5.10;;
9447;SDS011;4762;48.128;11.376;2022-12-11T08:57:00;5.77;;;4.47;;
9447;SDS011;4762;48.128;11.376;2022-12-11T08:59:09;6.73;;;4.27;;
9447;SDS011;4762;48.128;11.376;2022-12-11T09:01:14;8.73;;;4.90;;
9447;SDS011;4762;48.128;11.376;2022-12-11T09:03:21;10.03;;;5.33;;
9447;SDS011;4762;48.128;11.376;2022-12-11T09:05:25;6.83;;;4.80;;
9447;SDS011;4762;48.128;11.376;2022-12-11T09:07:27;7.80;;;4.70;;
9447;SDS011;4762;48.128;11.376;2022-12-11T09:09:30;6.63;;;4.80;;
9447;SDS011;4762;48.128;11.376;2022-12-11T09:11:33;7.57;;;4.23;;
9447;SDS011;4762;48.128;11.376;2022-12-11T09:13:35;8.50;;;4.70;;
9447;SDS011;4762;48.128;11.376;2022-12-11T09:15:39;8.60;;;6.30;;
9447;SDS011;4762;48.128;11.376;2022-12-11T09:17:42;11.27;;;6.23;;
9447;SDS011;4762;48.128;11.376;2022-12-11T09:19:46;6.90;;;4.63;;
9447;SDS011;4762;48.128;11.376;2022-12-11T09:21:49;9.10;;;4.37;;
9447;SDS011;4762;48.128;11.376;2022-12-11T09:23:53;7.70;;;4.87;;
9447;SDS011;4762;48.128;11.376;2022-12-11T09:25:56;7.07;;;5.17;;
9447;SDS011;4762;48.128;11.376;2022-12-11T09:27:58;11.43;;;5.27;;
9447;SDS011;4762;48.128;11.376;2022-12-11T09:30:01;7.30;;;4.80;;
9447;SDS011;4762;48.128;11.376;2022-12-11T09:32:06;7.40;;;4.10;;
9447;SDS011;4762;48.128;11.376;2022-12-11T09:34:10;6.83;;;3.97;;
9447;SDS011;4762;48.128;11.376;2022-12-11T09:36:11;6.53;;;4.50;;
9447;SDS011;4762;48.128;11.376;2022-12-11T09:38:14;6.57;;;4.53;;
9447;SDS011;4762;48.128;11.376;2022-12-11T09:40:17;9.00;;;4.80;;
9447;SDS011;4762;48.128;11.376;2022-12-11T09:42:22;9.30;;;5.90;;
9447;SDS011;4762;48.128;11.376;2022-12-11T09:44:30;6.37;;;4.13;;
9447;SDS011;4762;48.128;11.376;2022-12-11T09:46:34;7.70;;;4.60;;
9447;SDS011;4762;48.128;11.376;2022-12-11T09:48:37;10.93;;;5.63;;
9447;SDS011;4762;48.128;11.376;2022-12-11T09:50:41;8.07;;;4.80;;
9447;SDS011;4762;48.128;11.376;2022-12-11T09:52:48;8.33;;;4.40;;
9447;SDS011;4762;48.128;11.376;2022-12-11T09:54:53;5.10;;;3.83;;
9447;SDS011;4762;48.128;11.376;2022-12-11T09:56:59;8.47;;;4.00;;
9447;SDS011;4762;48.128;11.376;2022-12-11T10:00:13;7.57;;;4.43;;
9447;SDS011;4762;48.128;11.376;2022-12-11T10:03:50;8.10;;;4.10;;
9447;SDS011;4762;48.128;11.376;2022-12-11T10:05:56;6.53;;;4.03;;
9447;SDS011;4762;48.128;11.376;2022-12-11T10:08:18;4.10;;;3.53;;
9447;SDS011;4762;48.128;11.376;2022-12-11T10:10:42;6.53;;;4.73;;
9447;SDS011;4762;48.128;11.376;2022-12-11T10:16:18;9.43;;;5.30;;
9447;SDS011;4762;48.128;11.376;2022-12-11T10:17:40;4.67;;;3.73;;
9447;SDS011;4762;48.128;11.376;2022-12-11T10:19:42;4.70;;;3.33;;
9447;SDS011;4762;48.128;11.376;2022-12-11T10:21:45;7.80;;;4.00;;
9447;SDS011;4762;48.128;11.376;2022-12-11T10:23:53;4.63;;;3.47;;
9447;SDS011;4762;48.128;11.376;2022-12-11T10:25:57;4.60;;;3.47;;
9447;SDS011;4762;48.128;11.376;2022-12-11T10:27:59;4.27;;;3.67;;
9447;SDS011;4762;48.128;11.376;2022-12-11T10:30:12;7.63;;;4.20;;
9447;SDS011;4762;48.128;11.376;2022-12-11T10:32:18;6.20;;;4.67;;
9447;SDS011;4762;48.128;11.376;2022-12-11T10:34:32;7.10;;;4.20;;
9447;SDS011;4762;48.128;11.376;2022-12-11T10:36:36;16.20;;;6.40;;
9447;SDS011;4762;48.128;11.376;2022-12-11T10:38:44;7.67;;;4.30;;
9447;SDS011;4762;48.128;11.376;2022-12-11T10:40:49;4.90;;;3.57;;
9447;SDS011;4762;48.128;11.376;2022-12-11T10:42:58;3.90;;;3.40;;
9447;SDS011;4762;48.128;11.376;2022-12-11T10:45:03;10.83;;;5.80;;
9447;SDS011;4762;48.128;11.376;2022-12-11T10:47:11;8.30;;;3.80;;
9447;SDS011;4762;48.128;11.376;2022-12-11T10:51:23;5.83;;;4.00;;
9447;SDS011;4762;48.128;11.376;2022-12-11T10:53:26;3.33;;;2.90;;
9447;SDS011;4762;48.128;11.376;2022-12-11T10:55:42;4.87;;;3.50;;
9447;SDS011;4762;48.128;11.376;2022-12-11T10:57:33;4.73;;;3.17;;
9447;SDS011;4762;48.128;11.376;2022-12-11T10:59:37;6.53;;;4.20;;
9447;SDS011;4762;48.128;11.376;2022-12-11T11:01:54;5.43;;;3.43;;
9447;SDS011;4762;48.128;11.376;2022-12-11T11:04:04;5.20;;;3.57;;
9447;SDS011;4762;48.128;11.376;2022-12-11T11:06:14;6.50;;;3.80;;
9447;SDS011;4762;48.128;11.376;2022-12-11T11:08:20;5.80;;;3.60;;
9447;SDS011;4762;48.128;11.376;2022-12-11T11:10:35;8.07;;;3.93;;
9447;SDS011;4762;48.128;11.376;2022-12-11T11:12:41;6.40;;;4.23;;
9447;SDS011;4762;48.128;11.376;2022-12-11T11:14:57;6.43;;;3.57;;
9447;SDS011;4762;48.128;11.376;2022-12-11T11:16:57;4.40;;;3.33;;
9447;SDS011;4762;48.128;11.376;2022-12-11T11:19:00;3.97;;;3.03;;
9447;SDS011;4762;48.128;11.376;2022-12-11T11:23:26;4.73;;;3.17;;
9447;SDS011;4762;48.128;11.376;2022-12-11T11:25:32;3.37;;;3.07;;
9447;SDS011;4762;48.128;11.376;2022-12-11T11:27:39;4.97;;;3.50;;
9447;SDS011;4762;48.128;11.376;2022-12-11T11:29:59;3.60;;;3.17;;
9447;SDS011;4762;48.128;11.376;2022-12-11T11:36:56;7.47;;;4.10;;
9447;SDS011;4762;48.128;11.376;2022-12-11T11:44:14;5.00;;;3.10;;
9447;SDS011;4762;48.128;11.376;2022-12-11T11:46:20;3.03;;;2.30;;
9447;SDS011;4762;48.128;11.376;2022-12-11T11:48:34;3.53;;;2.60;;
9447;SDS011;4762;48.128;11.376;2022-12-11T11:50:53;5.00;;;2.83;;
9447;SDS011;4762;48.128;11.376;2022-12-11T11:53:02;3.00;;;2.67;;
9447;SDS011;4762;48.128;11.376;2022-12-11T11:55:08;5.07;;;3.53;;
9447;SDS011;4762;48.128;11.376;2022-12-11T11:57:49;5.53;;;3.10;;
9447;SDS011;4762;48.128;11.376;2022-12-11T11:59:46;2.23;;;1.93;;
9447;SDS011;4762;48.128;11.376;2022-12-11T12:01:53;3.07;;;2.40;;
9447;SDS011;4762;48.128;11.376;2022-12-11T12:04:02;9.50;;;4.00;;
9447;SDS011;4762;48.128;11.376;2022-12-11T12:06:18;3.80;;;3.00;;
9447;SDS011;4762;48.128;11.376;2022-12-11T12:08:41;4.90;;;2.90;;
9447;SDS011;4762;48.128;11.376;2022-12-11T12:10:50;3.00;;;2.37;;
9447;SDS011;4762;48.128;11.376;2022-12-11T12:12:56;5.50;;;3.20;;
9447;SDS011;4762;48.128;11.376;2022-12-11T12:17:25;5.80;;;3.17;;
9447;SDS011;4762;48.128;11.376;2022-12-11T12:19:37;7.43;;;3.90;;
9447;SDS011;4762;48.128;11.376;2022-12-11T12:21:46;4.87;;;3.30;;
9447;SDS011;4762;48.128;11.376;2022-12-11T12:24:01;5.27;;;3.57;;
9447;SDS011;4762;48.128;11.376;2022-12-11T12:26:17;16.53;;;3.30;;
9447;SDS011;4762;48.128;11.376;2022-12-11T12:30:58;3.30;;;2.57;;
9447;SDS011;4762;48.128;11.376;2022-12-11T12:35:14;5.73;;;3.30;;
9447;SDS011;4762;48.128;11.376;2022-12-11T12:39:40;3.27;;;2.73;;
9447;SDS011;4762;48.128;11.376;2022-12-11T13:04:22;3.53;;;2.90;;
9447;SDS011;4762;48.128;11.376;2022-12-11T13:06:10;5.20;;;2.27;;
9447;SDS011;4762;48.128;11.376;2022-12-11T13:08:17;4.03;;;3.00;;
9447;SDS011;4762;48.128;11.376;2022-12-11T13:10:22;3.63;;;2.70;;
9447;SDS011;4762;48.128;11.376;2022-12-11T13:12:32;2.90;;;1.97;;
9447;SDS011;4762;48.128;11.376;2022-12-11T13:14:57;2.63;;;2.07;;
9447;SDS011;4762;48.128;11.376;2022-12-11T13:19:37;2.33;;;1.83;;
9447;SDS011;4762;48.128;11.376;2022-12-11T13:21:54;2.90;;;2.07;;
9447;SDS011;4762;48.128;11.376;2022-12-11T13:23:47;3.80;;;2.40;;
9447;SDS011;4762;48.128;11.376;2022-12-11T13:25:54;4.37;;;3.10;;
9447;SDS011;4762;48.128;11.376;2022-12-11T13:28:04;3.10;;;2.33;;
9447;SDS011;4762;48.128;11.376;2022-12-11T13:32:31;5.20;;;2.63;;
9447;SDS011;4762;48.128;11.376;2022-12-11T13:34:39;3.47;;;2.57;;
9447;SDS011;4762;48.128;11.376;2022-12-11T13:36:47;7.20;;;2.80;;
9447;SDS011;4762;48.128;11.376;2022-12-11T13:38:56;3.70;;;2.27;;
9447;SDS011;4762;48.128;11.376;2022-12-11T13:40:58;5.80;;;3.07;;
9447;SDS011;4762;48.128;11.376;2022-12-11T13:43:02;3.47;;;2.50;;
9447;SDS011;4762;48.128;11.376;2022-12-11T13:45:04;5.50;;;3.30;;
9447;SDS011;4762;48.128;11.376;2022-12-11T13:47:10;4.10;;;2.73;;
9447;SDS011;4762;48.128;11.376;2022-12-11T13:49:17;3.20;;;2.80;;
9447;SDS011;4762;48.128;11.376;2022-12-11T13:51:23;2.93;;;2.43;;
9447;SDS011;4762;48.128;11.376;2022-12-11T13:53:26;7.00;;;3.37;;
9447;SDS011;4762;48.128;11.376;2022-12-11T13:55:29;4.20;;;2.70;;
9447;SDS011;4762;48.128;11.376;2022-12-11T13:57:33;6.13;;;3.70;;
9447;SDS011;4762;48.128;11.376;2022-12-11T13:59:39;3.83;;;2.57;;
9447;SDS011;4762;48.128;11.376;2022-12-11T14:01:40;3.80;;;3.13;;
9447;SDS011;4762;48.128;11.376;2022-12-11T14:03:52;2.40;;;2.00;;
9447;SDS011;4762;48.128;11.376;2022-12-11T14:08:10;3.43;;;3.00;;
9447;SDS011;4762;48.128;11.376;2022-12-11T14:10:17;5.63;;;2.50;;
9447;SDS011;4762;48.128;11.376;2022-12-11T14:12:22;3.60;;;2.43;;
9447;SDS011;4762;48.128;11.376;2022-12-11T14:16:57;8.03;;;3.00;;
9447;SDS011;4762;48.128;11.376;2022-12-11T14:19:02;2.77;;;2.33;;
9447;SDS011;4762;48.128;11.376;2022-12-11T14:21:05;3.87;;;2.83;;
9447;SDS011;4762;48.128;11.376;2022-12-11T14:23:16;3.63;;;2.87;;
9447;SDS011;4762;48.128;11.376;2022-12-11T14:25:21;3.33;;;2.53;;
9447;SDS011;4762;48.128;11.376;2022-12-11T14:27:26;2.93;;;2.50;;
9447;SDS011;4762;48.128;11.376;2022-12-11T14:29:33;5.67;;;2.57;;
9447;SDS011;4762;48.128;11.376;2022-12-11T14:36:53;5.57;;;1.87;;
9447;SDS011;4762;48.128;11.376;2022-12-11T14:38:59;3.30;;;1.97;;
9447;SDS011;4762;48.128;11.376;2022-12-11T14:41:16;5.90;;;2.70;;
9447;SDS011;4762;48.128;11.376;2022-12-11T14:43:21;4.87;;;2.90;;
9447;SDS011;4762;48.128;11.376;2022-12-11T14:45:27;4.60;;;1.87;;
9447;SDS011;4762;48.128;11.376;2022-12-11T14:47:42;2.90;;;2.27;;
9447;SDS011;4762;48.128;11.376;2022-12-11T14:49:47;2.80;;;2.10;;
9447;SDS011;4762;48.128;11.376;2022-12-11T14:51:47;4.10;;;2.13;;
9447;SDS011;4762;48.128;11.376;2022-12-11T14:53:51;3.30;;;2.70;;
9447;SDS011;4762;48.128;11.376;2022-12-11T14:55:54;4.90;;;2.57;;
9447;SDS011;4762;48.128;11.376;2022-12-11T14:57:59;9.87;;;2.67;;
9447;SDS011;4762;48.128;11.376;2022-12-11T15:00:01;3.07;;;2.40;;
9447;SDS011;4762;48.128;11.376;2022-12-11T15:04:41;2.87;;;2.00;;
9447;SDS011;4762;48.128;11.376;2022-12-11T15:06:44;3.00;;;1.93;;